Time;durP1;ratioP1;P1;durP2;ratioP2;P2;SDS_P1;SDS_P2;PMS_P1;PMS_P2;Temp;Humidity;BMP_temperature;BMP_pressure;BME280_temperature;BME280_humidity;BME280_pressure;Samples;Min_cycle;Max_cycle;Signal;HPM_P1;HPM_P2
2021/08/05 00:00:50;;;;;;;;;;;;;;;20.18;63.03;100922.55;464245;112;922677;-72
2021/08/05 00:01:54;;;;;;;;;;;;;;;20.22;62.94;100920.94;464819;112;923090;-73
2021/08/05 00:02:57;;;;;;;;;;;;;;;20.26;62.83;100921.22;463422;113;922644;-72
2021/08/05 00:04:01;;;;;;;;;;;;;;;20.29;62.71;100920.66;460379;112;922401;-72
2021/08/05 00:05:04;;;;;;;;;;;;;;;20.31;62.66;100921.23;463215;112;922729;-73
2021/08/05 00:06:07;;;;;;;;;;;;;;;20.31;62.57;100922.10;461202;115;923091;-72
2021/08/05 00:07:12;;;;;;;;;;;;;;;20.29;62.53;100915.95;461513;113;922306;-74
2021/08/05 00:08:16;;;;;;;;;;;;;;;20.27;62.60;100915.41;462432;112;922666;-72
2021/08/05 00:09:19;;;;;;;;;;;;;;;20.25;62.64;100914.84;462088;113;922784;-71
2021/08/05 00:10:23;;;;;;;;;;;;;;;20.23;62.68;100916.23;461662;113;922648;-72
2021/08/05 00:11:26;;;;;;;;;;;;;;;20.22;62.69;100912.63;462936;112;923083;-71
2021/08/05 00:12:29;;;;;;;;;;;;;;;20.21;62.69;100915.66;462908;112;922616;-72
2021/08/05 00:13:33;;;;;;;;;;;;;;;20.21;62.79;100910.12;463205;112;923785;-72
2021/08/05 00:14:38;;;;;;;;;;;;;;;20.22;62.81;100914.56;462955;113;922654;-72
2021/08/05 00:15:41;;;;;;;;;;;;;;;20.24;62.80;100915.10;462993;113;922680;-72
2021/08/05 00:16:45;;;;;;;;;;;;;;;20.26;62.77;100910.14;464905;112;922729;-72
2021/08/05 00:17:48;;;;;;;;;;;;;;;20.28;62.76;100910.71;463854;112;922653;-71
2021/08/05 00:18:51;;;;;;;;;;;;;;;20.31;62.67;100911.02;463145;114;922722;-74
2021/08/05 00:19:54;;;;;;;;;;;;;;;20.35;62.62;100916.84;462550;112;922619;-71
2021/08/05 00:20:58;;;;;;;;;;;;;;;20.37;62.55;100918.25;462930;113;923348;-72
2021/08/05 00:22:01;;;;;;;;;;;;;;;20.40;62.41;100916.86;460163;113;922774;-72
2021/08/05 00:23:04;;;;;;;;;;;;;;;20.42;62.36;100913.83;461367;113;922678;-72
2021/08/05 00:24:07;;;;;;;;;;;;;;;20.43;62.32;100919.10;460799;114;923100;-72
2021/08/05 00:25:11;;;;;;;;;;;;;;;20.45;62.32;100918.84;462803;112;922952;-71
2021/08/05 00:26:14;;;;;;;;;;;;;;;20.45;62.28;100927.98;463462;113;923090;-73
2021/08/05 00:27:17;;;;;;;;;;;;;;;20.46;62.25;100924.08;462057;112;923382;-72
2021/08/05 00:28:20;;;;;;;;;;;;;;;20.48;62.22;100921.88;461528;113;923149;-73
2021/08/05 00:29:24;;;;;;;;;;;;;;;20.48;62.18;100919.11;463413;112;922698;-72
2021/08/05 00:30:27;;;;;;;;;;;;;;;20.49;62.12;100922.72;463953;112;922648;-71
2021/08/05 00:31:30;;;;;;;;;;;;;;;20.49;62.04;100928.27;462257;115;922641;-74
2021/08/05 00:32:33;;;;;;;;;;;;;;;20.48;62.00;100923.81;461877;112;922726;-74
2021/08/05 00:33:37;;;;;;;;;;;;;;;20.48;61.95;100921.88;462924;112;922686;-74
2021/08/05 00:34:40;;;;;;;;;;;;;;;20.48;61.90;100921.88;462593;112;922728;-74
2021/08/05 00:35:44;;;;;;;;;;;;;;;20.49;61.87;100919.95;463220;112;922562;-74
2021/08/05 00:36:47;;;;;;;;;;;;;;;20.48;61.79;100915.51;464750;111;922745;-72
2021/08/05 00:37:50;;;;;;;;;;;;;;;20.47;61.69;100916.61;464655;112;922615;-74
2021/08/05 00:38:53;;;;;;;;;;;;;;;20.44;61.63;100922.70;464723;111;922713;-72
2021/08/05 00:39:57;;;;;;;;;;;;;;;20.40;61.63;100917.69;465044;112;923231;-73
2021/08/05 00:41:01;;;;;;;;;;;;;;;20.37;61.65;100922.95;465991;112;922624;-71
2021/08/05 00:42:04;;;;;;;;;;;;;;;20.34;61.66;100921.55;471790;112;922706;-72
2021/08/05 00:43:08;;;;;;;;;;;;;;;20.32;61.67;100931.24;468925;110;922651;-70
2021/08/05 00:44:11;;;;;;;;;;;;;;;20.28;61.74;100927.33;463273;112;922769;-72
2021/08/05 00:45:14;;;;;;;;;;;;;;;20.25;61.75;100936.99;465528;113;923208;-74
2021/08/05 00:46:18;;;;;;;;;;;;;;;20.23;61.79;100921.77;466489;112;922608;-74
2021/08/05 00:47:21;;;;;;;;;;;;;;;20.20;61.85;100925.90;465412;112;922410;-71
2021/08/05 00:48:24;;;;;;;;;;;;;;;20.19;61.90;100926.16;464553;111;922722;-73
2021/08/05 00:49:27;;;;;;;;;;;;;;;20.17;61.94;100918.14;464925;112;922701;-71
2021/08/05 00:50:32;;;;;;;;;;;;;;;20.17;61.98;100920.08;462573;111;922763;-72
2021/08/05 00:51:35;;;;;;;;;;;;;;;20.16;61.98;100913.70;460499;113;921392;-72
2021/08/05 00:52:39;;;;;;;;;;;;;;;20.14;61.97;100923.37;458803;113;922981;-72
2021/08/05 00:53:44;;;;;;;;;;;;;;;20.13;61.98;100919.77;460233;113;923561;-72
2021/08/05 00:54:47;;;;;;;;;;;;;;;20.11;61.97;100919.22;467888;113;922734;-72
2021/08/05 00:55:50;;;;;;;;;;;;;;;20.08;62.04;100913.37;468524;110;923056;-72
2021/08/05 00:56:53;;;;;;;;;;;;;;;20.06;62.09;100916.44;460924;113;922668;-72
2021/08/05 00:57:57;;;;;;;;;;;;;;;20.04;62.18;100924.16;461637;113;923165;-72
2021/08/05 00:59:00;;;;;;;;;;;;;;;20.02;62.22;100926.35;461787;113;922596;-70
2021/08/05 01:00:04;;;;;;;;;;;;;;;20.02;62.25;100926.35;462394;113;924234;-72
2021/08/05 01:01:09;;;;;;;;;;;;;;;20.01;62.30;100918.34;462235;111;923127;-73
2021/08/05 01:02:16;;;;;;;;;;;;;;;20.01;62.28;100927.48;462012;113;922762;-72
2021/08/05 01:03:28;;;;;;;;;;;;;;;20.02;62.26;100919.98;459652;113;923049;-72
2021/08/05 01:04:32;;;;;;;;;;;;;;;20.02;62.25;100915.28;457949;113;922655;-71
2021/08/05 01:05:40;;;;;;;;;;;;;;;20.03;62.19;100925.26;460141;113;921878;-74
2021/08/05 01:07:01;;;;;;;;;;;;;;;20.04;62.20;100921.39;458835;113;922694;-71
2021/08/05 01:08:06;;;;;;;;;;;;;;;20.06;62.22;100921.97;461499;113;921483;-72
2021/08/05 01:09:11;;;;;;;;;;;;;;;20.08;62.19;100919.74;460661;113;922642;-74
2021/08/05 01:10:16;;;;;;;;;;;;;;;20.10;62.17;100917.55;459581;112;923073;-73
2021/08/05 01:11:21;;;;;;;;;;;;;;;20.10;62.11;100920.32;459968;114;923087;-72
2021/08/05 01:12:26;;;;;;;;;;;;;;;20.12;62.06;100914.52;460647;113;923026;-72
2021/08/05 01:13:34;;;;;;;;;;;;;;;20.12;62.04;100914.52;460711;113;922662;-72
2021/08/05 01:14:39;;;;;;;;;;;;;;;20.12;61.99;100918.13;460992;113;922378;-72
2021/08/05 01:15:44;;;;;;;;;;;;;;;20.13;61.98;100917.00;460046;113;922633;-71
2021/08/05 01:16:49;;;;;;;;;;;;;;;20.13;61.98;100922.53;460815;113;922672;-72
2021/08/05 01:17:54;;;;;;;;;;;;;;;20.13;61.95;100925.30;461604;113;922465;-70
2021/08/05 01:18:59;;;;;;;;;;;;;;;20.15;61.96;100920.34;460803;113;923127;-73
2021/08/05 01:20:04;;;;;;;;;;;;;;;20.16;61.91;100926.71;460625;113;923076;-72
2021/08/05 01:21:09;;;;;;;;;;;;;;;20.16;61.72;100919.24;460253;115;923728;-72
2021/08/05 01:22:14;;;;;;;;;;;;;;;20.16;61.58;100922.02;462213;112;922595;-73
2021/08/05 01:23:26;;;;;;;;;;;;;;;20.16;61.51;100921.17;461944;114;922703;-72
2021/08/05 01:24:31;;;;;;;;;;;;;;;20.15;61.49;100925.88;463153;113;923081;-72
2021/08/05 01:25:36;;;;;;;;;;;;;;;20.15;61.58;100925.04;461762;113;922707;-72
2021/08/05 01:26:50;;;;;;;;;;;;;;;20.14;61.55;100923.37;448621;114;923030;-72
2021/08/05 01:27:56;;;;;;;;;;;;;;;20.12;61.60;100926.43;458546;113;923259;-72
2021/08/05 01:29:00;;;;;;;;;;;;;;;20.09;61.71;100921.41;457784;113;922634;-72
2021/08/05 01:30:05;;;;;;;;;;;;;;;20.09;61.79;100929.72;460416;113;923319;-73
2021/08/05 01:31:08;;;;;;;;;;;;;;;20.08;61.85;100925.28;462120;113;923774;-72
2021/08/05 01:32:11;;;;;;;;;;;;;;;20.10;61.86;100927.78;460653;113;923184;-73
2021/08/05 01:33:19;;;;;;;;;;;;;;;20.09;61.85;100926.95;461729;112;923413;-72
2021/08/05 01:34:23;;;;;;;;;;;;;;;20.09;61.84;100920.58;461697;113;922604;-72
2021/08/05 01:35:28;;;;;;;;;;;;;;;20.07;61.85;100918.07;461418;115;922693;-72
2021/08/05 01:36:32;;;;;;;;;;;;;;;20.03;61.86;100911.42;463227;113;922678;-71
2021/08/05 01:37:36;;;;;;;;;;;;;;;20.00;61.90;100920.27;462853;112;922605;-74
2021/08/05 01:38:40;;;;;;;;;;;;;;;19.95;61.95;100923.85;462062;113;922709;-74
2021/08/05 01:39:45;;;;;;;;;;;;;;;19.89;61.97;100916.62;461355;113;922710;-73
2021/08/05 01:40:51;;;;;;;;;;;;;;;19.85;62.18;100917.39;460972;115;924210;-72
2021/08/05 01:41:54;;;;;;;;;;;;;;;19.81;62.26;100910.73;461683;112;923171;-72
2021/08/05 01:42:58;;;;;;;;;;;;;;;19.77;62.36;100915.98;463454;112;922501;-72
2021/08/05 01:44:02;;;;;;;;;;;;;;;19.73;62.40;100911.27;462929;113;922968;-72
2021/08/05 01:45:07;;;;;;;;;;;;;;;19.68;62.50;100909.30;463005;113;923159;-72
2021/08/05 01:46:11;;;;;;;;;;;;;;;19.65;62.60;100914.52;460557;111;921923;-73
2021/08/05 01:47:14;;;;;;;;;;;;;;;19.62;62.75;100910.36;462402;111;922755;-72
2021/08/05 01:48:18;;;;;;;;;;;;;;;19.61;62.89;100914.23;464640;113;922669;-73
2021/08/05 01:49:22;;;;;;;;;;;;;;;19.62;62.93;100912.30;462572;113;922719;-73
2021/08/05 01:50:26;;;;;;;;;;;;;;;19.62;62.97;100910.36;462476;113;921663;-71
2021/08/05 01:51:30;;;;;;;;;;;;;;;19.63;62.96;100909.23;465214;112;924043;-72
2021/08/05 01:52:37;;;;;;;;;;;;;;;19.62;62.97;100910.36;466607;112;922643;-73
2021/08/05 01:53:42;;;;;;;;;;;;;;;19.62;63.01;100915.06;465281;112;922683;-72
2021/08/05 01:54:46;;;;;;;;;;;;;;;19.62;63.00;100921.43;464902;113;922501;-72
2021/08/05 01:55:49;;;;;;;;;;;;;;;19.61;63.07;100927.22;465743;113;923162;-73
2021/08/05 01:56:52;;;;;;;;;;;;;;;19.60;63.14;100925.55;465189;111;922736;-72
2021/08/05 01:57:57;;;;;;;;;;;;;;;19.58;63.15;100934.10;465882;113;922537;-72
2021/08/05 01:59:01;;;;;;;;;;;;;;;19.56;63.16;100931.63;465594;113;922690;-72
2021/08/05 02:00:06;;;;;;;;;;;;;;;19.53;63.18;100928.54;466038;113;922703;-73
2021/08/05 02:01:11;;;;;;;;;;;;;;;19.51;63.24;100927.99;464738;113;923184;-73
2021/08/05 02:02:28;;;;;;;;;;;;;;;19.50;63.33;100929.08;465025;113;923147;-73
2021/08/05 02:03:32;;;;;;;;;;;;;;;19.50;63.42;100929.08;447251;117;922675;-72
2021/08/05 02:04:47;;;;;;;;;;;;;;;19.51;63.45;100925.23;445789;117;922727;-72
2021/08/05 02:05:52;;;;;;;;;;;;;;;19.52;63.54;100924.94;446115;117;922720;-73
2021/08/05 02:06:57;;;;;;;;;;;;;;;19.54;63.58;100925.52;446021;117;922694;-72
2021/08/05 02:08:04;;;;;;;;;;;;;;;19.56;63.51;100925.26;446941;117;922669;-74
2021/08/05 02:09:09;;;;;;;;;;;;;;;19.56;63.43;100919.73;446364;117;924246;-74
2021/08/05 02:10:21;;;;;;;;;;;;;;;19.54;63.40;100919.98;446417;117;923573;-73
2021/08/05 02:11:25;;;;;;;;;;;;;;;19.53;63.36;100914.70;447211;117;923256;-74
2021/08/05 02:12:30;;;;;;;;;;;;;;;19.50;63.46;100915.25;446690;115;922658;-72
2021/08/05 02:13:37;;;;;;;;;;;;;;;19.45;63.56;100913.29;447457;117;924348;-72
2021/08/05 02:14:41;;;;;;;;;;;;;;;19.42;63.64;100921.23;446991;117;921464;-74
2021/08/05 02:15:46;;;;;;;;;;;;;;;19.38;63.77;100915.41;446508;117;922744;-72
2021/08/05 02:16:51;;;;;;;;;;;;;;;19.36;63.90;100912.06;446309;117;922683;-72
2021/08/05 02:17:56;;;;;;;;;;;;;;;19.35;64.05;100917.88;446148;117;923140;-72
2021/08/05 02:19:01;;;;;;;;;;;;;;;19.34;64.14;100916.20;445284;117;922337;-73
2021/08/05 02:20:07;;;;;;;;;;;;;;;19.32;64.26;100910.09;446432;117;921432;-73
2021/08/05 02:21:13;;;;;;;;;;;;;;;19.32;64.33;100908.17;446900;117;922642;-73
2021/08/05 02:22:19;;;;;;;;;;;;;;;19.32;64.30;100910.94;446216;117;922727;-72
2021/08/05 02:23:23;;;;;;;;;;;;;;;19.31;64.34;100914.79;446963;117;923100;-71
2021/08/05 02:24:30;;;;;;;;;;;;;;;19.31;64.41;100919.48;446498;117;922618;-73
2021/08/05 02:25:32;;;;;;;;;;;;;;;19.30;64.46;100913.12;446717;117;922679;-72
2021/08/05 02:26:36;;;;;;;;;;;;;;;19.30;64.45;100918.64;446796;117;922601;-73
2021/08/05 02:27:41;;;;;;;;;;;;;;;19.31;64.41;100916.72;446683;117;922526;-73
2021/08/05 02:28:46;;;;;;;;;;;;;;;19.31;64.31;100917.55;447257;117;922557;-72
2021/08/05 02:29:49;;;;;;;;;;;;;;;19.29;64.26;100922.53;446829;117;922672;-72
2021/08/05 02:30:54;;;;;;;;;;;;;;;19.29;64.19;100924.47;446077;117;922631;-73
2021/08/05 02:31:58;;;;;;;;;;;;;;;19.26;64.14;100924.98;446760;117;922715;-73
2021/08/05 02:33:02;;;;;;;;;;;;;;;19.24;64.13;100930.76;446711;116;922698;-71
2021/08/05 02:34:07;;;;;;;;;;;;;;;19.23;64.16;100928.28;445936;117;923289;-73
2021/08/05 02:35:12;;;;;;;;;;;;;;;19.22;64.30;100926.61;446801;117;922595;-73
2021/08/05 02:36:15;;;;;;;;;;;;;;;19.22;64.35;100924.68;447197;117;921497;-72
2021/08/05 02:37:19;;;;;;;;;;;;;;;19.22;64.34;100916.38;445781;117;922727;-72
2021/08/05 02:38:22;;;;;;;;;;;;;;;19.24;64.32;100930.76;445814;117;923689;-72
2021/08/05 02:39:26;;;;;;;;;;;;;;;19.23;64.31;100923.59;445850;117;922700;-73
2021/08/05 02:40:30;;;;;;;;;;;;;;;19.24;64.38;100929.95;445829;117;923968;-72
2021/08/05 02:41:35;;;;;;;;;;;;;;;19.24;64.37;100930.76;445705;117;923129;-72
2021/08/05 02:42:39;;;;;;;;;;;;;;;19.26;64.41;100931.34;446030;117;922702;-72
2021/08/05 02:43:43;;;;;;;;;;;;;;;19.30;64.38;100931.64;447291;117;922924;-72
2021/08/05 02:44:46;;;;;;;;;;;;;;;19.31;64.36;100927.78;446706;117;922687;-73
2021/08/05 02:45:51;;;;;;;;;;;;;;;19.34;64.32;100930.88;447420;117;922708;-71
2021/08/05 02:46:55;;;;;;;;;;;;;;;19.36;64.28;100928.66;446408;117;922673;-72
2021/08/05 02:47:59;;;;;;;;;;;;;;;19.39;64.23;100925.37;438047;119;922725;-72
2021/08/05 02:49:04;;;;;;;;;;;;;;;19.40;64.14;100932.58;437895;119;922668;-74
2021/08/05 02:50:08;;;;;;;;;;;;;;;19.41;64.14;100928.69;446587;117;923136;-72
2021/08/05 02:51:12;;;;;;;;;;;;;;;19.41;64.15;100927.86;446614;117;922619;-73
2021/08/05 02:52:16;;;;;;;;;;;;;;;19.41;64.11;100933.39;446462;117;923026;-73
2021/08/05 02:53:19;;;;;;;;;;;;;;;19.40;64.14;100932.58;447187;117;923249;-73
2021/08/05 02:54:23;;;;;;;;;;;;;;;19.40;64.19;100929.81;446631;117;923149;-72
2021/08/05 02:55:27;;;;;;;;;;;;;;;19.40;64.20;100934.51;446010;117;923148;-72
2021/08/05 02:56:30;;;;;;;;;;;;;;;19.41;64.22;100933.39;446951;117;922706;-71
2021/08/05 02:57:34;;;;;;;;;;;;;;;19.43;64.21;100937.56;446682;117;923781;-72
2021/08/05 02:58:38;;;;;;;;;;;;;;;19.45;64.17;100943.71;445850;117;922699;-72
2021/08/05 02:59:42;;;;;;;;;;;;;;;19.47;64.13;100935.96;446843;117;922695;-73
2021/08/05 03:00:46;;;;;;;;;;;;;;;19.49;64.10;100936.55;446374;117;921806;-73
2021/08/05 03:01:50;;;;;;;;;;;;;;;19.51;63.95;100947.35;446654;117;922737;-73
2021/08/05 03:02:53;;;;;;;;;;;;;;;19.52;63.87;100947.06;446787;117;922672;-70
2021/08/05 03:03:57;;;;;;;;;;;;;;;19.53;63.83;100943.20;446114;117;923117;-72
2021/08/05 03:05:00;;;;;;;;;;;;;;;19.54;63.81;100942.11;446703;117;923096;-72
2021/08/05 03:06:04;;;;;;;;;;;;;;;19.53;63.83;100934.91;446421;117;922678;-72
2021/08/05 03:07:08;;;;;;;;;;;;;;;19.54;63.80;100932.98;446392;117;925143;-71
2021/08/05 03:08:12;;;;;;;;;;;;;;;19.52;63.85;100936.00;446805;116;922632;-72
2021/08/05 03:09:15;;;;;;;;;;;;;;;19.52;63.87;100935.16;446796;117;922768;-73
2021/08/05 03:10:18;;;;;;;;;;;;;;;19.53;63.87;100939.60;446784;119;922728;-71
2021/08/05 03:11:22;;;;;;;;;;;;;;;19.53;63.86;100940.44;440343;117;922660;-74
2021/08/05 03:12:25;;;;;;;;;;;;;;;19.53;63.82;100937.67;445104;117;922509;-73
2021/08/05 03:13:28;;;;;;;;;;;;;;;19.53;63.77;100943.20;446912;117;922705;-73
2021/08/05 03:14:32;;;;;;;;;;;;;;;19.53;63.77;100940.44;446912;117;922691;-72
2021/08/05 03:15:36;;;;;;;;;;;;;;;19.53;63.79;100934.91;444167;117;922680;-71
2021/08/05 03:16:39;;;;;;;;;;;;;;;19.54;63.86;100942.11;437328;119;923163;-73
2021/08/05 03:17:42;;;;;;;;;;;;;;;19.56;63.89;100941.86;444103;119;922688;-71
2021/08/05 03:18:46;;;;;;;;;;;;;;;19.57;63.89;100941.56;446952;117;922395;-71
2021/08/05 03:19:49;;;;;;;;;;;;;;;19.59;63.87;100941.31;447527;117;922715;-72
2021/08/05 03:20:53;;;;;;;;;;;;;;;19.62;63.87;100939.96;447626;117;922714;-73
2021/08/05 03:21:56;;;;;;;;;;;;;;;19.64;63.83;100940.50;447540;117;923033;-73
2021/08/05 03:22:59;;;;;;;;;;;;;;;19.65;63.82;100939.41;431329;119;922703;-72
2021/08/05 03:24:03;;;;;;;;;;;;;;;19.66;63.91;100938.32;430967;121;924188;-72
2021/08/05 03:25:06;;;;;;;;;;;;;;;19.64;63.91;100940.50;430994;121;922731;-72
2021/08/05 03:26:10;;;;;;;;;;;;;;;19.62;63.87;100937.19;431768;122;921454;-73
2021/08/05 03:27:13;;;;;;;;;;;;;;;19.58;63.83;100937.70;432709;121;922702;-72
2021/08/05 03:28:16;;;;;;;;;;;;;;;19.57;63.87;100940.77;431509;121;923231;-73
2021/08/05 03:29:20;;;;;;;;;;;;;;;19.55;63.91;100942.95;432115;121;922997;-72
2021/08/05 03:30:23;;;;;;;;;;;;;;;19.53;64.00;100943.20;432982;120;922734;-72
2021/08/05 03:31:26;;;;;;;;;;;;;;;19.52;64.09;100949.83;433492;121;922692;-72
2021/08/05 03:32:29;;;;;;;;;;;;;;;19.52;64.22;100949.83;431687;121;922660;-73
2021/08/05 03:33:33;;;;;;;;;;;;;;;19.53;64.30;100943.20;430913;123;922643;-71
2021/08/05 03:34:36;;;;;;;;;;;;;;;19.55;64.34;100932.72;431697;121;922750;-73
2021/08/05 03:35:39;;;;;;;;;;;;;;;19.58;64.41;100936.87;431160;123;922712;-73
2021/08/05 03:36:42;;;;;;;;;;;;;;;19.62;64.39;100942.73;431306;121;923115;-71
2021/08/05 03:37:45;;;;;;;;;;;;;;;19.65;64.43;100925.58;431496;122;922713;-72
2021/08/05 03:38:49;;;;;;;;;;;;;;;19.68;64.44;100928.67;433742;121;924030;-71
2021/08/05 03:39:52;;;;;;;;;;;;;;;19.69;64.52;100929.47;433887;120;922736;-72
2021/08/05 03:40:55;;;;;;;;;;;;;;;19.71;64.53;100932.81;435016;120;922743;-71
2021/08/05 03:41:59;;;;;;;;;;;;;;;19.72;64.47;100926.19;434213;120;922739;-70
2021/08/05 03:43:02;;;;;;;;;;;;;;;19.74;64.43;100935.04;431287;121;923154;-72
2021/08/05 03:44:06;;;;;;;;;;;;;;;19.76;64.40;100932.84;447679;117;924338;-72
2021/08/05 03:45:09;;;;;;;;;;;;;;;19.77;64.39;100931.75;447586;117;922697;-71
2021/08/05 03:46:12;;;;;;;;;;;;;;;19.78;64.36;100930.66;447305;117;923615;-72
2021/08/05 03:47:16;;;;;;;;;;;;;;;19.78;64.38;100934.27;446669;117;922648;-72
2021/08/05 03:48:19;;;;;;;;;;;;;;;19.80;64.38;100934.81;445388;117;923835;-71
2021/08/05 03:49:22;;;;;;;;;;;;;;;19.82;64.38;100931.78;447005;117;921438;-72
2021/08/05 03:50:25;;;;;;;;;;;;;;;19.83;64.32;100933.45;446356;117;922874;-72
2021/08/05 03:51:29;;;;;;;;;;;;;;;19.82;64.35;100931.78;445928;117;922628;-70
2021/08/05 03:52:32;;;;;;;;;;;;;;;19.83;64.38;100925.98;446124;117;923809;-72
2021/08/05 03:53:37;;;;;;;;;;;;;;;19.87;64.36;100934.58;445802;115;923107;-73
2021/08/05 03:54:40;;;;;;;;;;;;;;;19.89;64.28;100929.63;445869;117;922708;-72
2021/08/05 03:55:43;;;;;;;;;;;;;;;19.90;64.18;100926.56;445768;117;922643;-71
2021/08/05 03:56:46;;;;;;;;;;;;;;;19.91;64.17;100927.40;446661;119;922868;-72
2021/08/05 03:57:50;;;;;;;;;;;;;;;19.92;64.18;100927.14;446044;117;922407;-73
2021/08/05 03:58:53;;;;;;;;;;;;;;;19.93;64.19;100928.81;446426;117;922697;-72
2021/08/05 03:59:56;;;;;;;;;;;;;;;19.97;64.09;100923.56;447298;117;922684;-71
2021/08/05 04:00:59;;;;;;;;;;;;;;;19.99;64.03;100924.14;446455;117;923180;-72
2021/08/05 04:02:03;;;;;;;;;;;;;;;20.01;63.96;100926.64;437829;119;922709;-72
2021/08/05 04:03:07;;;;;;;;;;;;;;;20.02;63.90;100931.89;447030;117;922588;-71
2021/08/05 04:04:10;;;;;;;;;;;;;;;20.05;63.84;100925.00;449347;116;922814;-72
2021/08/05 04:05:13;;;;;;;;;;;;;;;20.07;63.74;100928.34;449977;116;922775;-72
2021/08/05 04:06:16;;;;;;;;;;;;;;;20.07;63.66;100922.80;450226;116;922714;-72
2021/08/05 04:07:19;;;;;;;;;;;;;;;20.10;63.65;100919.48;449601;116;922779;-71
2021/08/05 04:08:23;;;;;;;;;;;;;;;20.13;63.64;100921.70;450401;116;922695;-72
2021/08/05 04:09:26;;;;;;;;;;;;;;;20.14;63.58;100926.14;450016;116;923193;-72
2021/08/05 04:10:29;;;;;;;;;;;;;;;20.15;63.59;100920.34;450086;116;922815;-73
2021/08/05 04:11:33;;;;;;;;;;;;;;;20.18;63.55;100916.21;450449;116;922637;-72
2021/08/05 04:12:36;;;;;;;;;;;;;;;20.19;63.44;100913.16;450179;116;922669;-71
2021/08/05 04:13:39;;;;;;;;;;;;;;;20.23;63.38;100916.23;449759;117;922589;-72
2021/08/05 04:14:43;;;;;;;;;;;;;;;20.25;63.34;100912.07;445362;116;923477;-70
2021/08/05 04:15:46;;;;;;;;;;;;;;;20.29;63.28;100904.05;441244;118;923506;-71
2021/08/05 04:16:50;;;;;;;;;;;;;;;20.33;63.15;100907.99;445710;118;922713;-71
2021/08/05 04:17:54;;;;;;;;;;;;;;;20.37;63.13;100912.71;447939;117;922736;-72
2021/08/05 04:18:57;;;;;;;;;;;;;;;20.39;63.04;100920.76;449046;117;922636;-70
2021/08/05 04:20:01;;;;;;;;;;;;;;;20.42;63.01;100916.59;448399;117;923219;-71
2021/08/05 04:21:04;;;;;;;;;;;;;;;20.44;62.92;100915.23;448664;117;922668;-71
2021/08/05 04:22:07;;;;;;;;;;;;;;;20.47;62.89;100920.22;448873;117;922725;-71
2021/08/05 04:23:10;;;;;;;;;;;;;;;20.49;62.79;100912.47;448988;117;922678;-69
2021/08/05 04:24:14;;;;;;;;;;;;;;;20.52;62.65;100916.62;448950;117;922783;-73
2021/08/05 04:25:17;;;;;;;;;;;;;;;20.56;62.60;100914.99;448795;117;922978;-72
2021/08/05 04:26:20;;;;;;;;;;;;;;;20.58;62.41;100915.53;448721;117;922657;-71
2021/08/05 04:27:23;;;;;;;;;;;;;;;20.60;62.24;100922.48;448791;117;922652;-70
2021/08/05 04:28:27;;;;;;;;;;;;;;;20.62;62.09;100920.25;448525;117;922689;-74
2021/08/05 04:29:30;;;;;;;;;;;;;;;20.64;62.00;100914.45;440025;119;922698;-72
2021/08/05 04:30:33;;;;;;;;;;;;;;;20.66;61.90;100915.02;432152;121;923655;-75
2021/08/05 04:31:37;;;;;;;;;;;;;;;20.68;61.83;100915.55;433077;120;925484;-76
2021/08/05 04:32:40;;;;;;;;;;;;;;;20.69;61.78;100915.29;434852;120;922725;-73
2021/08/05 04:33:44;;;;;;;;;;;;;;;20.71;61.77;100917.80;436140;118;922624;-73
2021/08/05 04:34:48;;;;;;;;;;;;;;;20.73;61.71;100916.40;435384;120;922709;-73
2021/08/05 04:35:51;;;;;;;;;;;;;;;20.75;61.44;100913.36;431310;121;922670;-72
2021/08/05 04:36:54;;;;;;;;;;;;;;;20.77;61.37;100916.70;440403;119;921635;-74
2021/08/05 04:37:59;;;;;;;;;;;;;;;20.79;61.39;100922.78;433410;121;922764;-76
2021/08/05 04:39:03;;;;;;;;;;;;;;;20.80;61.45;100908.66;442053;118;923565;-74
2021/08/05 04:40:07;;;;;;;;;;;;;;;20.83;61.48;100915.61;442448;118;921511;-73
2021/08/05 04:41:10;;;;;;;;;;;;;;;20.85;61.49;100907.83;440784;118;922645;-73
2021/08/05 04:42:14;;;;;;;;;;;;;;;20.88;61.43;100909.23;431962;121;922821;-72
2021/08/05 04:43:17;;;;;;;;;;;;;;;20.89;61.32;100914.52;440884;119;923181;-71
2021/08/05 04:44:20;;;;;;;;;;;;;;;20.91;61.23;100906.73;433319;121;923169;-71
2021/08/05 04:45:23;;;;;;;;;;;;;;;20.93;61.14;100912.84;441038;118;922704;-73
2021/08/05 04:46:27;;;;;;;;;;;;;;;20.94;61.07;100911.75;449276;118;921581;-72
2021/08/05 04:47:30;;;;;;;;;;;;;;;20.98;61.05;100909.24;448804;116;922099;-73
2021/08/05 04:48:37;;;;;;;;;;;;;;;20.99;61.04;100911.75;449248;114;921662;-70
2021/08/05 04:49:54;;;;;;;;;;;;;;;21.02;61.00;100902.03;441530;120;923178;-70
2021/08/05 04:51:02;;;;;;;;;;;;;;;21.05;61.00;100909.81;442331;118;922406;-71
2021/08/05 04:52:08;;;;;;;;;;;;;;;21.07;60.97;100905.64;455516;115;922823;-70
2021/08/05 04:53:16;;;;;;;;;;;;;;;21.10;60.91;100910.65;454593;115;921556;-71
2021/08/05 04:54:18;;;;;;;;;;;;;;;21.12;60.98;100913.12;450776;118;921594;-70
2021/08/05 04:55:22;;;;;;;;;;;;;;;21.14;61.08;100910.92;450385;116;922630;-71
2021/08/05 04:56:29;;;;;;;;;;;;;;;21.17;61.11;100907.64;441452;119;921776;-71
2021/08/05 04:57:33;;;;;;;;;;;;;;;21.20;61.09;100909.84;448799;117;922671;-69
2021/08/05 04:58:36;;;;;;;;;;;;;;;21.23;60.92;100903.73;449042;114;922671;-70
2021/08/05 04:59:40;;;;;;;;;;;;;;;21.27;60.69;100915.12;448910;117;922682;-70
2021/08/05 05:00:43;;;;;;;;;;;;;;;21.31;60.34;100910.67;448958;117;922647;-70
2021/08/05 05:01:47;;;;;;;;;;;;;;;21.33;60.07;100914.84;449469;116;922703;-71
2021/08/05 05:02:51;;;;;;;;;;;;;;;21.36;59.88;100908.73;450167;118;922655;-71
2021/08/05 05:03:55;;;;;;;;;;;;;;;21.39;59.70;100908.16;450491;116;922612;-71
2021/08/05 05:04:59;;;;;;;;;;;;;;;21.42;59.50;100909.56;447077;117;922683;-71
2021/08/05 05:06:02;;;;;;;;;;;;;;;21.45;59.34;100911.76;447276;117;923430;-71
2021/08/05 05:07:05;;;;;;;;;;;;;;;21.48;59.25;100911.22;447066;118;923576;-70
2021/08/05 05:08:19;;;;;;;;;;;;;;;21.50;59.08;100906.23;447518;117;922712;-70
2021/08/05 05:09:22;;;;;;;;;;;;;;;21.53;58.97;100908.44;447753;115;922577;-70
2021/08/05 05:10:25;;;;;;;;;;;;;;;21.55;58.83;100907.06;447057;117;922819;-70
2021/08/05 05:11:30;;;;;;;;;;;;;;;21.58;58.78;100911.20;447438;117;922634;-70
2021/08/05 05:12:34;;;;;;;;;;;;;;;21.61;58.69;100907.89;446993;118;922642;-70
2021/08/05 05:13:37;;;;;;;;;;;;;;;21.64;58.64;100915.63;447162;115;923638;-71
2021/08/05 05:14:40;;;;;;;;;;;;;;;21.67;58.55;100917.03;447632;117;923576;-71
2021/08/05 05:15:44;;;;;;;;;;;;;;;21.69;58.58;100920.34;447067;117;922219;-69
2021/08/05 05:16:48;;;;;;;;;;;;;;;21.70;58.60;100911.74;446763;117;922868;-70
2021/08/05 05:17:51;;;;;;;;;;;;;;;21.74;58.72;100914.78;446999;118;922642;-71
2021/08/05 05:18:54;;;;;;;;;;;;;;;21.78;58.79;100916.70;447736;117;923656;-72
2021/08/05 05:19:57;;;;;;;;;;;;;;;21.81;58.82;100916.16;447026;117;923082;-71
2021/08/05 05:21:00;;;;;;;;;;;;;;;21.85;58.68;100913.64;432029;121;922987;-71
2021/08/05 05:22:04;;;;;;;;;;;;;;;21.88;58.58;100908.37;432811;121;922741;-71
2021/08/05 05:23:07;;;;;;;;;;;;;;;21.91;58.37;100918.91;447525;118;923718;-71
2021/08/05 05:24:10;;;;;;;;;;;;;;;21.94;58.02;100915.58;447060;118;922948;-70
2021/08/05 05:25:15;;;;;;;;;;;;;;;21.98;57.74;100913.93;445859;117;922695;-70
2021/08/05 05:26:18;;;;;;;;;;;;;;;22.00;57.61;100914.45;447679;117;923600;-71